Time;durP1;ratioP1;P1;durP2;ratioP2;P2;SDS_P1;SDS_P2;PMS_P1;PMS_P2;Temp;Humidity;BMP_temperature;BMP_pressure;BME280_temperature;BME280_humidity;BME280_pressure;Samples;Min_cycle;Max_cycle;Signal;HPM_P1;HPM_P2
2021/06/26 00:00:54;;;;;;;14.05;7.32;;;12.50;99.90;;;;;;4886787;29;20053;-85
2021/06/26 07:33:35;;;;;;;10.98;2.60;;;13.20;99.90;;;;;;4856118;29;20136;-88
2021/06/26 07:36:02;;;;;;;6.10;2.70;;;13.30;99.90;;;;;;4856322;29;20053;-84
2021/06/26 07:38:29;;;;;;;5.15;2.55;;;13.30;99.90;;;;;;4858813;29;20053;-85
2021/06/26 07:40:56;;;;;;;8.93;2.88;;;13.40;99.90;;;;;;4858610;29;20077;-85
2021/06/26 07:43:24;;;;;;;7.43;2.35;;;13.40;99.90;;;;;;4855987;29;20049;-87
2021/06/26 07:45:52;;;;;;;7.32;2.60;;;13.40;99.90;;;;;;4860295;29;20101;-85
2021/06/26 07:48:19;;;;;;;9.18;3.10;;;13.40;99.90;;;;;;4858300;29;20053;-84
2021/06/26 07:50:50;;;;;;;7.10;2.80;;;13.40;99.90;;;;;;4858477;29;20580;-89
2021/06/26 07:53:18;;;;;;;6.32;2.70;;;13.40;99.90;;;;;;4858223;29;20049;-87
2021/06/26 07:55:51;;;;;;;6.10;2.95;;;13.40;99.90;;;;;;4859002;29;20109;-84
2021/06/26 07:58:23;;;;;;;7.43;2.95;;;13.50;99.90;;;;;;4854273;29;20050;-86
2021/06/26 08:00:51;;;;;;;8.85;2.42;;;13.50;99.90;;;;;;4857775;29;20050;-84
2021/06/26 08:03:19;;;;;;;6.95;2.60;;;13.60;99.90;;;;;;4857729;29;20049;-85
2021/06/26 08:05:49;;;;;;;8.20;2.50;;;13.70;99.90;;;;;;4857025;29;20521;-84
2021/06/26 08:08:18;;;;;;;8.43;2.92;;;13.80;99.90;;;;;;4858019;29;20592;-83
2021/06/26 08:10:45;;;;;;;6.00;2.65;;;13.90;99.90;;;;;;4859640;29;20053;-83
2021/06/26 08:13:14;;;;;;;8.05;2.90;;;14.00;99.90;;;;;;4853443;29;20049;-84
2021/06/26 08:15:46;;;;;;;6.68;2.70;;;14.10;99.90;;;;;;4858020;29;20049;-84
2021/06/26 08:18:13;;;;;;;6.72;2.88;;;14.20;99.90;;;;;;4858216;29;20053;-83
2021/06/26 08:20:41;;;;;;;7.80;2.60;;;14.20;99.90;;;;;;4859604;29;20049;-84
2021/06/26 08:23:09;;;;;;;7.55;2.28;;;14.30;99.90;;;;;;4858250;29;20057;-83
2021/06/26 08:25:36;;;;;;;7.53;2.38;;;14.30;99.90;;;;;;4857433;29;20050;-84
2021/06/26 08:28:04;;;;;;;6.32;2.72;;;14.40;99.90;;;;;;4858743;29;20064;-83
2021/06/26 08:30:31;;;;;;;6.18;2.30;;;14.40;99.90;;;;;;4866301;29;20057;-86
2021/06/26 08:32:58;;;;;;;4.07;2.10;;;14.40;99.90;;;;;;4855346;29;20111;-84
2021/06/26 08:35:25;;;;;;;4.95;2.55;;;14.40;99.90;;;;;;4838415;29;20578;-85
2021/06/26 08:37:52;;;;;;;7.00;2.03;;;14.50;99.90;;;;;;4837739;29;20143;-84
2021/06/26 08:40:20;;;;;;;6.70;2.30;;;14.50;99.90;;;;;;4837606;29;20102;-84
2021/06/26 08:42:48;;;;;;;4.50;1.75;;;14.60;99.90;;;;;;4837854;29;20060;-84
2021/06/26 08:45:17;;;;;;;6.97;2.20;;;14.60;99.90;;;;;;4835539;29;20054;-84
2021/06/26 08:47:55;;;;;;;5.78;2.53;;;14.60;99.90;;;;;;4837325;29;20058;-83
2021/06/26 08:50:26;;;;;;;7.57;2.07;;;14.70;99.90;;;;;;4836150;29;20043;-83
2021/06/26 08:52:53;;;;;;;7.43;2.42;;;14.80;99.90;;;;;;4837936;29;20801;-82
2021/06/26 08:55:20;;;;;;;6.18;2.00;;;14.80;99.90;;;;;;4836452;29;20077;-82
2021/06/26 08:57:48;;;;;;;8.50;1.98;;;15.00;99.90;;;;;;4840630;29;20065;-81
2021/06/26 09:00:21;;;;;;;7.20;1.80;;;15.10;99.90;;;;;;4840206;29;20110;-84
2021/06/26 09:02:49;;;;;;;5.13;1.83;;;15.20;99.90;;;;;;4835623;29;20062;-82
2021/06/26 09:05:25;;;;;;;4.30;1.63;;;15.30;99.90;;;;;;4839363;29;20115;-82
2021/06/26 09:07:52;;;;;;;5.75;1.90;;;15.40;99.90;;;;;;4843122;29;20102;-82
2021/06/26 09:10:23;;;;;;;5.82;2.03;;;15.40;99.90;;;;;;4840701;29;20090;-82
2021/06/26 09:12:51;;;;;;;4.75;2.03;;;15.50;99.90;;;;;;4842561;29;20053;-82
2021/06/26 09:15:26;;;;;;;6.63;2.60;;;15.60;99.90;;;;;;4836064;29;20049;-83
2021/06/26 09:17:55;;;;;;;7.68;2.10;;;15.70;99.90;;;;;;4836201;29;20087;-82
2021/06/26 09:20:37;;;;;;;8.95;2.60;;;15.70;99.90;;;;;;4836758;29;20106;-82
2021/06/26 09:23:14;;;;;;;8.00;2.03;;;15.80;99.90;;;;;;4837577;29;20046;-82
2021/06/26 09:25:41;;;;;;;6.53;1.90;;;15.90;99.90;;;;;;4836088;29;20050;-81
2021/06/26 09:28:24;;;;;;;3.78;2.20;;;15.90;99.90;;;;;;4838462;29;20057;-82
2021/06/26 09:30:52;;;;;;;6.95;2.38;;;15.90;99.90;;;;;;4833083;29;20053;-82
2021/06/26 09:33:29;;;;;;;6.68;2.10;;;16.00;99.90;;;;;;4837876;29;20089;-82
2021/06/26 09:36:11;;;;;;;6.50;1.55;;;16.00;99.90;;;;;;4833703;29;20042;-84
2021/06/26 09:38:55;;;;;;;5.22;2.15;;;15.90;99.90;;;;;;4836999;29;20450;-82
2021/06/26 09:41:22;;;;;;;7.28;2.30;;;15.90;99.90;;;;;;4838614;29;20062;-82
2021/06/26 09:43:49;;;;;;;3.88;1.60;;;15.90;99.90;;;;;;4838481;29;20577;-82
2021/06/26 09:46:18;;;;;;;3.42;1.85;;;16.00;99.90;;;;;;4835499;29;20053;-84
2021/06/26 09:49:02;;;;;;;5.28;2.03;;;16.10;99.90;;;;;;4839638;29;20045;-82
2021/06/26 09:51:31;;;;;;;4.90;1.95;;;16.20;99.90;;;;;;4848552;29;20105;-82
2021/06/26 09:54:04;;;;;;;3.58;1.80;;;16.20;99.90;;;;;;4836785;29;20084;-84
2021/06/26 09:56:37;;;;;;;3.20;1.92;;;16.30;99.90;;;;;;4855306;29;20050;-83
2021/06/26 09:59:04;;;;;;;5.20;2.10;;;16.30;99.90;;;;;;4838647;29;20487;-81
2021/06/26 10:01:38;;;;;;;4.00;1.70;;;16.30;99.90;;;;;;4838998;29;20118;-83
2021/06/26 10:04:06;;;;;;;6.75;2.50;;;16.30;99.90;;;;;;4839820;29;20536;-83
2021/06/26 10:06:34;;;;;;;5.15;2.03;;;16.30;99.90;;;;;;4837390;29;20077;-81
2021/06/26 10:09:05;;;;;;;7.77;2.40;;;16.20;99.90;;;;;;4839395;29;20066;-83
2021/06/26 10:11:33;;;;;;;8.02;2.42;;;16.20;99.90;;;;;;4829955;29;20312;-82
2021/06/26 10:14:05;;;;;;;6.95;2.13;;;16.30;99.90;;;;;;4840596;29;20058;-82
2021/06/26 10:16:34;;;;;;;3.67;1.50;;;16.30;99.90;;;;;;4839304;29;20057;-81
2021/06/26 10:19:02;;;;;;;5.95;2.00;;;16.30;99.90;;;;;;4840160;29;20062;-82
2021/06/26 10:21:30;;;;;;;;;;;16.30;99.90;;;;;;4852159;29;20046;-82
2021/06/26 10:23:59;;;;;;;10.32;3.25;;;16.40;99.90;;;;;;4839283;29;19984;-83
2021/06/26 10:26:27;;;;;;;4.35;1.90;;;16.20;99.90;;;;;;4838374;29;20566;-82
2021/06/26 10:29:01;;;;;;;7.43;2.30;;;16.20;99.90;;;;;;4840297;29;20050;-82
2021/06/26 10:31:31;;;;;;;4.07;2.10;;;16.20;99.90;;;;;;4849292;29;20499;-84
2021/06/26 10:34:22;;;;;;;6.03;2.47;;;16.30;99.90;;;;;;4838471;29;20133;-82
2021/06/26 10:36:59;;;;;;;5.28;2.22;;;16.30;99.90;;;;;;4849662;29;20154;-82
2021/06/26 10:39:29;;;;;;;4.63;2.30;;;16.20;99.90;;;;;;4836556;29;20070;-82
2021/06/26 10:42:02;;;;;;;5.10;1.70;;;16.30;99.90;;;;;;4837699;29;20062;-81
2021/06/26 10:44:50;;;;;;;5.50;1.98;;;16.20;99.90;;;;;;4838860;29;20118;-81
2021/06/26 10:47:32;;;;;;;4.70;2.00;;;16.30;99.90;;;;;;4852369;29;20050;-80
2021/06/26 10:50:14;;;;;;;4.72;1.75;;;16.30;99.90;;;;;;4837677;29;20057;-82
2021/06/26 10:52:52;;;;;;;5.28;2.00;;;16.40;99.90;;;;;;4837615;29;20054;-81
2021/06/26 10:55:33;;;;;;;4.63;1.63;;;16.50;99.90;;;;;;4831547;29;20110;-82
2021/06/26 10:58:02;;;;;;;5.60;2.30;;;16.40;99.90;;;;;;4835599;29;20137;-82
2021/06/26 11:00:34;;;;;;;4.13;2.00;;;16.40;99.90;;;;;;4838390;29;20097;-82
2021/06/26 11:03:04;;;;;;;5.60;2.20;;;16.50;99.90;;;;;;4838497;29;20065;-82
2021/06/26 11:05:36;;;;;;;4.75;2.15;;;16.50;99.90;;;;;;4835883;29;20050;-83
2021/06/26 11:08:14;;;;;;;4.88;1.70;;;16.60;99.90;;;;;;4837965;29;20054;-84
2021/06/26 11:11:10;;;;;;;7.22;1.98;;;16.70;99.90;;;;;;4837826;29;20065;-82
2021/06/26 11:13:38;;;;;;;4.45;1.80;;;16.80;99.90;;;;;;4829536;29;20049;-84
2021/06/26 11:16:09;;;;;;;4.90;2.00;;;16.90;99.90;;;;;;4833439;29;20119;-84
2021/06/26 11:18:36;;;;;;;4.22;1.80;;;17.00;99.90;;;;;;4838676;29;20098;-84
2021/06/26 11:21:04;;;;;;;5.05;2.03;;;17.00;99.90;;;;;;4839902;29;20118;-83
2021/06/26 11:23:31;;;;;;;4.30;1.70;;;17.00;99.90;;;;;;4837943;29;20136;-84
2021/06/26 11:26:03;;;;;;;5.97;1.88;;;17.10;99.90;;;;;;4836840;29;20115;-83
2021/06/26 11:28:39;;;;;;;3.38;1.67;;;17.20;99.90;;;;;;4838286;29;20459;-84
2021/06/26 11:31:06;;;;;;;4.30;1.83;;;17.30;99.90;;;;;;4835509;29;20589;-85
2021/06/26 11:33:36;;;;;;;4.03;1.70;;;17.30;99.90;;;;;;4839166;29;20056;-83
2021/06/26 11:36:09;;;;;;;4.72;1.60;;;17.30;99.90;;;;;;4835749;29;20054;-83
2021/06/26 11:38:36;;;;;;;6.65;1.98;;;17.40;99.90;;;;;;4837787;29;20046;-83
2021/06/26 11:41:07;;;;;;;6.00;1.75;;;17.40;99.90;;;;;;4839436;29;20050;-82
2021/06/26 11:43:35;;;;;;;4.85;1.90;;;17.50;99.90;;;;;;4832793;29;20113;-83
2021/06/26 11:46:04;;;;;;;3.03;1.50;;;17.50;99.90;;;;;;4838944;29;20601;-84
2021/06/26 11:48:31;;;;;;;4.15;1.70;;;17.60;99.90;;;;;;4832740;29;20419;-82
2021/06/26 11:51:05;;;;;;;5.90;1.80;;;17.60;99.90;;;;;;4830272;29;20106;-83
2021/06/26 11:53:37;;;;;;;8.02;2.00;;;17.60;99.90;;;;;;4835085;29;20046;-85
2021/06/26 11:56:04;;;;;;;4.88;1.92;;;17.50;99.90;;;;;;4835089;29;20058;-83
2021/06/26 11:58:43;;;;;;;4.32;1.92;;;17.40;99.90;;;;;;4841387;29;20054;-84
2021/06/26 12:01:14;;;;;;;;;;;17.50;99.90;;;;;;4838197;29;20042;-83
2021/06/26 12:03:43;;;;;;;6.15;1.50;;;17.50;99.90;;;;;;4838925;29;19928;-83
2021/06/26 12:06:15;;;;;;;4.00;1.52;;;17.60;99.90;;;;;;4839065;29;20058;-82
2021/06/26 12:08:46;;;;;;;4.95;1.60;;;17.70;99.90;;;;;;4840928;29;20586;-83
2021/06/26 12:11:18;;;;;;;4.03;1.73;;;17.90;99.90;;;;;;4838948;29;20467;-83
2021/06/26 12:13:46;;;;;;;4.32;1.75;;;18.00;99.90;;;;;;4842393;29;20089;-83
2021/06/26 12:16:27;;;;;;;4.35;1.60;;;18.10;99.90;;;;;;4841068;29;20521;-85
2021/06/26 12:18:59;;;;;;;3.13;1.38;;;18.30;99.90;;;;;;4837437;29;20064;-84
2021/06/26 12:21:38;;;;;;;5.47;1.90;;;18.50;99.90;;;;;;4837634;29;20170;-83
2021/06/26 12:24:06;;;;;;;4.10;1.60;;;18.70;99.90;;;;;;4838620;29;20054;-83
2021/06/26 12:26:33;;;;;;;4.55;1.70;;;18.80;99.90;;;;;;4838924;29;20110;-82
2021/06/26 12:29:00;;;;;;;4.32;1.42;;;18.80;99.90;;;;;;4842695;29;20062;-82
2021/06/26 12:31:27;;;;;;;2.92;1.50;;;18.80;99.90;;;;;;4842861;29;20190;-83
2021/06/26 12:34:05;;;;;;;5.53;1.40;;;18.90;99.90;;;;;;4844543;29;20115;-83
2021/06/26 12:36:33;;;;;;;3.38;1.20;;;19.10;99.90;;;;;;4832920;29;20102;-84
2021/06/26 12:39:01;;;;;;;3.60;1.20;;;19.20;99.90;;;;;;4842359;29;20515;-85
2021/06/26 12:41:34;;;;;;;4.90;1.38;;;19.40;99.90;;;;;;4856708;29;20054;-83
2021/06/26 12:44:02;;;;;;;3.88;1.30;;;19.50;99.90;;;;;;4840497;29;20066;-83
2021/06/26 12:46:30;;;;;;;2.47;1.13;;;19.60;99.90;;;;;;4841834;29;20046;-83
2021/06/26 12:49:00;;;;;;;4.22;1.23;;;19.60;99.90;;;;;;4842093;29;20065;-83
2021/06/26 12:51:46;;;;;;;3.45;1.25;;;19.60;99.90;;;;;;4837874;29;20068;-84
2021/06/26 12:54:14;;;;;;;5.63;1.48;;;19.60;99.90;;;;;;4841643;29;20103;-82
2021/06/26 12:56:47;;;;;;;4.15;1.40;;;19.60;99.90;;;;;;4839373;29;20046;-83
2021/06/26 12:59:17;;;;;;;3.85;1.33;;;19.60;99.90;;;;;;4841590;29;20054;-84
2021/06/26 13:02:03;;;;;;;4.47;1.40;;;19.80;99.90;;;;;;4842395;29;20102;-82
2021/06/26 13:04:47;;;;;;;3.30;1.20;;;19.90;99.90;;;;;;4832375;29;20062;-81
2021/06/26 13:07:25;;;;;;;5.47;1.40;;;19.80;99.90;;;;;;4831739;29;20062;-82
2021/06/26 13:09:56;;;;;;;5.23;1.40;;;19.70;99.90;;;;;;4851811;29;20261;-82
2021/06/26 13:12:25;;;;;;;5.05;1.63;;;19.50;99.90;;;;;;4837730;29;20482;-84
2021/06/26 13:14:56;;;;;;;5.75;1.73;;;19.50;99.90;;;;;;4842103;29;20085;-82
2021/06/26 13:17:24;;;;;;;4.75;1.38;;;19.40;99.90;;;;;;4837090;29;20387;-81
2021/06/26 13:19:55;;;;;;;3.42;1.35;;;19.30;99.90;;;;;;4852077;29;20102;-83
2021/06/26 13:22:42;;;;;;;3.08;1.27;;;19.40;99.90;;;;;;4836356;29;20061;-81
2021/06/26 13:25:12;;;;;;;3.55;1.20;;;19.40;99.90;;;;;;4839111;29;20126;-82
2021/06/26 13:27:42;;;;;;;3.88;1.20;;;19.30;99.90;;;;;;4836516;29;20575;-84
2021/06/26 13:30:12;;;;;;;3.05;1.13;;;19.40;99.90;;;;;;4838514;29;20054;-82
2021/06/26 13:32:40;;;;;;;6.97;1.75;;;19.60;99.90;;;;;;4854059;29;20135;-81
2021/06/26 13:35:08;;;;;;;3.83;1.23;;;19.80;99.90;;;;;;4839427;29;20167;-83
2021/06/26 13:37:35;;;;;;;3.47;1.13;;;19.90;99.90;;;;;;4836923;29;20472;-84
2021/06/26 13:40:04;;;;;;;3.35;1.23;;;20.10;99.90;;;;;;4837573;29;20395;-82
2021/06/26 13:42:30;;;;;;;3.38;1.23;;;20.20;99.90;;;;;;4838874;29;20509;-84
2021/06/26 13:44:57;;;;;;;3.10;1.13;;;20.30;99.90;;;;;;4839030;29;20046;-82
2021/06/26 13:47:24;;;;;;;3.20;1.58;;;20.30;99.90;;;;;;4840675;29;20057;-84
2021/06/26 13:49:51;;;;;;;3.28;1.23;;;20.40;99.90;;;;;;4837212;29;20130;-83
2021/06/26 13:52:18;;;;;;;3.75;0.98;;;20.40;99.90;;;;;;4837298;29;20062;-83
2021/06/26 13:54:44;;;;;;;4.15;1.33;;;20.30;99.90;;;;;;4838778;29;20114;-83
2021/06/26 13:57:11;;;;;;;3.42;1.25;;;20.20;99.90;;;;;;4840644;29;20054;-82
2021/06/26 13:59:38;;;;;;;2.92;1.23;;;20.10;99.90;;;;;;4841709;29;20463;-82
2021/06/26 14:02:05;;;;;;;4.85;1.58;;;20.00;99.90;;;;;;4837137;29;20085;-84
2021/06/26 14:04:32;;;;;;;4.30;1.33;;;20.00;99.90;;;;;;4839382;29;20050;-83
2021/06/26 14:06:59;;;;;;;3.55;1.27;;;20.20;99.90;;;;;;4839065;29;20129;-83
2021/06/26 14:09:27;;;;;;;4.72;1.60;;;20.30;99.90;;;;;;4839119;29;20516;-84
2021/06/26 14:11:54;;;;;;;2.38;1.10;;;20.50;99.90;;;;;;4839802;29;20053;-83
2021/06/26 14:14:21;;;;;;;4.72;1.10;;;20.70;99.90;;;;;;4853996;29;20046;-84
2021/06/26 14:16:48;;;;;;;3.67;1.10;;;20.90;99.90;;;;;;4839639;29;20110;-81
2021/06/26 14:19:14;;;;;;;3.83;1.20;;;21.00;99.90;;;;;;4838413;29;20418;-82
2021/06/26 14:21:41;;;;;;;2.95;1.33;;;21.10;99.90;;;;;;4838932;29;20046;-82
2021/06/26 14:24:08;;;;;;;4.85;1.23;;;21.00;99.90;;;;;;4839673;29;20062;-82
2021/06/26 14:26:35;;;;;;;3.13;1.00;;;21.00;99.90;;;;;;4855227;29;20050;-82
2021/06/26 14:29:05;;;;;;;3.65;1.10;;;20.90;99.90;;;;;;4839624;29;20054;-83
2021/06/26 14:31:32;;;;;;;5.35;1.30;;;20.80;99.90;;;;;;4833084;29;20102;-82
2021/06/26 14:33:59;;;;;;;3.78;1.30;;;20.80;99.90;;;;;;4840687;29;20444;-82
2021/06/26 14:36:26;;;;;;;4.13;1.45;;;20.90;99.90;;;;;;4840228;29;20086;-83
2021/06/26 14:38:53;;;;;;;5.07;1.10;;;21.00;99.90;;;;;;4834402;29;20100;-83
2021/06/26 14:41:20;;;;;;;3.88;0.95;;;21.00;99.90;;;;;;4838427;29;20110;-83
2021/06/26 14:43:47;;;;;;;4.18;1.23;;;21.10;99.90;;;;;;4838455;29;20107;-83
2021/06/26 14:46:14;;;;;;;2.90;1.23;;;21.20;99.90;;;;;;4837919;29;20084;-83
2021/06/26 14:48:41;;;;;;;3.28;1.20;;;21.20;99.90;;;;;;4839217;29;20062;-83
2021/06/26 14:51:08;;;;;;;4.20;1.20;;;21.20;99.90;;;;;;4853748;29;20493;-83
2021/06/26 14:53:36;;;;;;;1.80;1.10;;;21.30;99.90;;;;;;4855233;29;20050;-83
2021/06/26 14:56:04;;;;;;;6.38;1.60;;;21.30;99.90;;;;;;4853214;29;20125;-83
2021/06/26 14:58:31;;;;;;;5.07;1.53;;;21.50;99.90;;;;;;4838764;29;20045;-82
2021/06/26 15:00:58;;;;;;;5.15;1.40;;;21.50;99.90;;;;;;4836332;29;20114;-81
2021/06/26 15:03:25;;;;;;;8.85;1.40;;;21.40;99.90;;;;;;4849016;29;20094;-88
2021/06/26 15:05:52;;;;;;;5.15;1.45;;;21.40;99.90;;;;;;4840918;29;20081;-85
2021/06/26 15:08:19;;;;;;;8.52;1.38;;;21.50;99.90;;;;;;4837409;29;20187;-85
2021/06/26 15:10:46;;;;;;;2.65;1.15;;;21.50;99.90;;;;;;4835719;29;20054;-83
2021/06/26 15:13:13;;;;;;;3.70;1.42;;;21.50;99.90;;;;;;4837155;29;20050;-83
2021/06/26 15:15:40;;;;;;;3.30;1.13;;;21.50;99.30;;;;;;4840469;29;20054;-83
2021/06/26 15:18:07;;;;;;;4.75;1.13;;;21.50;99.40;;;;;;4834814;29;20063;-82
2021/06/26 15:20:34;;;;;;;4.07;1.42;;;21.50;99.10;;;;;;4837189;29;20046;-83
2021/06/26 15:23:01;;;;;;;2.97;1.23;;;21.60;99.20;;;;;;4837910;29;20066;-82
2021/06/26 15:25:28;;;;;;;5.38;0.95;;;21.80;99.30;;;;;;4838066;29;20046;-84
2021/06/26 15:27:56;;;;;;;3.50;0.95;;;21.80;98.80;;;;;;4835513;29;20054;-81
2021/06/26 15:30:23;;;;;;;2.70;1.00;;;21.80;98.80;;;;;;4830720;29;20046;-85
2021/06/26 15:32:50;;;;;;;3.38;0.90;;;21.70;98.50;;;;;;4840589;29;20475;-83
2021/06/26 15:35:18;;;;;;;4.57;1.00;;;21.70;98.20;;;;;;4834908;29;20087;-87
2021/06/26 15:37:46;;;;;;;2.92;1.10;;;21.60;98.00;;;;;;4856194;29;20053;-84
2021/06/26 15:40:13;;;;;;;3.70;1.17;;;21.40;98.00;;;;;;4841164;29;20501;-83
2021/06/26 15:42:40;;;;;;;3.20;1.00;;;21.50;98.40;;;;;;4837265;29;20054;-83
2021/06/26 15:45:09;;;;;;;4.25;1.13;;;21.60;98.20;;;;;;4839740;29;20123;-84
2021/06/26 15:47:37;;;;;;;3.97;1.33;;;21.60;98.30;;;;;;4831112;29;20490;-84
2021/06/26 15:50:06;;;;;;;2.90;1.35;;;21.70;98.30;;;;;;4840087;29;20066;-87
2021/06/26 15:52:34;;;;;;;2.63;1.15;;;21.60;97.90;;;;;;4841864;29;20050;-84
2021/06/26 15:55:03;;;;;;;1.30;0.90;;;21.40;97.90;;;;;;4841392;29;20054;-84
2021/06/26 15:57:30;;;;;;;;;;;21.20;98.00;;;;;;4840962;29;20046;-84
2021/06/26 15:59:57;;;;;;;5.75;1.10;;;21.20;98.70;;;;;;4843351;29;19973;-84
2021/06/26 16:02:24;;;;;;;4.18;1.30;;;21.30;98.90;;;;;;4840497;29;20061;-84
2021/06/26 16:04:51;;;;;;;1.88;1.13;;;21.50;99.20;;;;;;4854369;29;20053;-83
2021/06/26 16:07:17;;;;;;;2.42;0.85;;;21.60;98.70;;;;;;4855201;29;20083;-82
2021/06/26 16:09:45;;;;;;;4.10;1.25;;;21.70;98.30;;;;;;4841873;29;20126;-82
2021/06/26 16:12:12;;;;;;;5.93;1.45;;;21.80;98.60;;;;;;4841376;29;20054;-83
2021/06/26 16:14:39;;;;;;;2.03;0.80;;;21.90;98.80;;;;;;4856192;29;20330;-83
2021/06/26 16:17:06;;;;;;;2.50;0.77;;;22.10;98.80;;;;;;4854956;29;20046;-82
2021/06/26 16:19:33;;;;;;;2.90;0.90;;;22.20;98.20;;;;;;4837447;29;20046;-82
2021/06/26 16:22:04;;;;;;;2.13;1.20;;;22.30;97.90;;;;;;4843300;29;20062;-83
2021/06/26 16:24:35;;;;;;;4.97;1.25;;;22.40;97.80;;;;;;4841143;29;20094;-83
2021/06/26 16:27:02;;;;;;;2.65;1.10;;;22.30;97.70;;;;;;4833860;29;20054;-83
2021/06/26 16:29:29;;;;;;;2.55;1.10;;;22.30;97.70;;;;;;4853951;29;20493;-84
2021/06/26 16:31:56;;;;;;;2.17;0.82;;;22.10;97.70;;;;;;4833640;29;20122;-84
2021/06/26 16:34:23;;;;;;;1.88;0.93;;;22.10;97.80;;;;;;4840200;29;20586;-86
2021/06/26 16:36:52;;;;;;;4.35;1.30;;;22.00;97.90;;;;;;4839196;29;20147;-84
2021/06/26 16:39:21;;;;;;;2.65;1.00;;;22.00;98.10;;;;;;4840000;29;20106;-84
2021/06/26 16:41:48;;;;;;;2.45;0.90;;;21.90;97.80;;;;;;4840651;29;20054;-84
2021/06/26 16:44:15;;;;;;;2.05;1.50;;;21.80;98.10;;;;;;4841023;29;20428;-83
2021/06/26 16:46:42;;;;;;;3.55;1.38;;;21.80;98.20;;;;;;4840162;29;20050;-82
2021/06/26 16:49:09;;;;;;;3.75;1.33;;;21.60;98.10;;;;;;4839130;29;20103;-83
2021/06/26 16:51:36;;;;;;;8.70;1.58;;;21.50;98.30;;;;;;4840114;29;20046;-84
2021/06/26 16:54:03;;;;;;;4.20;1.40;;;21.40;98.70;;;;;;4838606;29;20090;-84
2021/06/26 16:56:30;;;;;;;5.22;1.70;;;21.40;99.30;;;;;;4839493;29;20486;-85
2021/06/26 16:58:57;;;;;;;7.97;1.50;;;21.40;99.40;;;;;;4840630;29;20046;-83
2021/06/26 17:01:25;;;;;;;5.05;1.50;;;21.40;99.60;;;;;;4839701;29;20110;-85
2021/06/26 17:03:52;;;;;;;3.63;1.60;;;21.30;99.70;;;;;;4838420;29;20046;-83
2021/06/26 17:06:21;;;;;;;3.85;1.42;;;21.30;99.70;;;;;;4841363;29;20136;-84
2021/06/26 17:08:48;;;;;;;3.55;1.23;;;21.20;99.60;;;;;;4839430;29;20050;-83
2021/06/26 17:11:16;;;;;;;2.35;0.98;;;21.20;99.60;;;;;;4838254;29;20062;-84
2021/06/26 17:13:42;;;;;;;2.90;1.10;;;21.10;99.40;;;;;;4839157;29;20510;-83
2021/06/26 17:16:10;;;;;;;3.30;1.30;;;21.10;99.30;;;;;;4855565;29;20085;-85
2021/06/26 17:18:37;;;;;;;4.03;1.67;;;21.00;99.50;;;;;;4841286;29;20046;-83
2021/06/26 17:21:05;;;;;;;9.50;2.97;;;21.00;99.90;;;;;;4838321;29;20343;-85
2021/06/26 17:23:34;;;;;;;4.55;1.80;;;21.00;99.90;;;;;;4832487;29;20532;-85
2021/06/26 17:26:01;;;;;;;7.07;1.92;;;21.00;99.90;;;;;;4829823;29;20054;-84
2021/06/26 17:28:31;;;;;;;6.40;1.70;;;21.10;99.90;;;;;;4837278;29;20662;-84
2021/06/26 17:30:58;;;;;;;2.60;1.40;;;21.20;99.90;;;;;;4829682;29;20463;-85
2021/06/26 17:33:26;;;;;;;6.68;1.73;;;21.40;99.90;;;;;;4833594;29;20060;-83
2021/06/26 17:35:55;;;;;;;3.10;1.25;;;21.70;99.90;;;;;;4835630;29;20102;-84
2021/06/26 17:38:22;;;;;;;;;;;22.10;99.90;;;;;;4835026;29;20174;-84
2021/06/26 17:40:49;;;;;;;4.40;1.60;;;22.50;99.90;;;;;;4834262;29;20009;-84
2021/06/26 17:43:17;;;;;;;6.80;1.58;;;22.80;99.90;;;;;;4836305;29;20058;-83
2021/06/26 17:45:50;;;;;;;4.47;1.30;;;23.20;99.50;;;;;;4835404;29;20102;-83
2021/06/26 17:48:17;;;;;;;3.88;1.23;;;23.20;99.70;;;;;;4836886;29;20480;-84
2021/06/26 17:50:50;;;;;;;3.28;1.40;;;23.50;99.50;;;;;;4853416;29;20058;-83
2021/06/26 17:53:24;;;;;;;5.18;1.15;;;23.80;99.10;;;;;;4840201;29;20110;-81
2021/06/26 17:55:55;;;;;;;4.38;1.50;;;23.90;98.40;;;;;;4834146;29;20058;-84
2021/06/26 17:58:28;;;;;;;3.20;1.50;;;23.80;97.80;;;;;;4834645;29;20054;-83
2021/06/26 18:01:06;;;;;;;3.15;1.50;;;23.60;97.90;;;;;;4837241;29;20049;-83
2021/06/26 18:03:34;;;;;;;3.10;1.35;;;23.30;97.80;;;;;;4837492;29;20106;-83
2021/06/26 18:06:01;;;;;;;6.37;1.40;;;23.00;98.10;;;;;;4835401;29;20567;-84
2021/06/26 18:08:28;;;;;;;5.45;1.42;;;22.80;98.50;;;;;;4840778;29;20767;-83
2021/06/26 18:10:55;;;;;;;3.00;1.30;;;22.60;98.80;;;;;;4840903;29;20430;-83
2021/06/26 18:13:22;;;;;;;3.72;1.30;;;22.50;99.10;;;;;;4840072;29;20781;-82
2021/06/26 18:15:49;;;;;;;3.78;1.33;;;22.60;99.30;;;;;;4839814;29;20053;-82
2021/06/26 18:18:16;;;;;;;5.85;1.45;;;22.70;99.10;;;;;;4835422;29;20425;-83
2021/06/26 18:20:43;;;;;;;5.10;1.30;;;23.10;99.20;;;;;;4837756;29;20471;-81
2021/06/26 18:23:10;;;;;;;4.13;1.52;;;23.20;98.90;;;;;;4838351;29;20057;-82
2021/06/26 18:25:37;;;;;;;4.07;1.48;;;23.30;98.70;;;;;;4839671;29;20102;-82
2021/06/26 18:28:04;;;;;;;4.18;1.30;;;23.20;98.50;;;;;;4839033;29;20600;-83
2021/06/26 18:30:32;;;;;;;3.67;1.30;;;23.10;98.40;;;;;;4839067;29;20091;-83
2021/06/26 18:33:00;;;;;;;2.88;1.42;;;22.80;98.40;;;;;;4839117;29;20054;-83
2021/06/26 18:35:26;;;;;;;5.72;1.55;;;22.60;98.60;;;;;;4835906;29;20502;-82
2021/06/26 18:37:55;;;;;;;5.10;1.63;;;22.40;98.90;;;;;;4840451;29;20525;-82
2021/06/26 18:40:22;;;;;;;3.17;1.40;;;22.20;99.10;;;;;;4837356;29;20065;-82
2021/06/26 18:42:49;;;;;;;3.42;1.80;;;21.90;99.40;;;;;;4852732;29;20054;-82
2021/06/26 18:45:17;;;;;;;6.43;1.85;;;21.70;99.70;;;;;;4838344;29;20094;-82
2021/06/26 18:47:45;;;;;;;4.45;1.50;;;21.50;99.90;;;;;;4838206;29;20572;-83
2021/06/26 18:50:15;;;;;;;3.67;1.40;;;21.30;99.90;;;;;;4838647;29;20150;-83
2021/06/26 18:52:42;;;;;;;4.80;1.50;;;21.00;99.90;;;;;;4839048;29;20049;-82
2021/06/26 18:55:10;;;;;;;5.95;1.50;;;20.70;99.90;;;;;;4840122;29;20058;-83
2021/06/26 18:57:37;;;;;;;3.72;1.50;;;20.60;99.90;;;;;;4839104;29;20054;-82
2021/06/26 19:00:09;;;;;;;7.63;1.52;;;20.40;99.90;;;;;;4835239;29;20050;-82
2021/06/26 19:02:43;;;;;;;3.95;1.50;;;20.20;99.90;;;;;;4836513;29;20141;-82
2021/06/26 19:05:11;;;;;;;4.47;1.70;;;20.00;99.90;;;;;;4835621;29;20057;-82
2021/06/26 19:07:39;;;;;;;4.63;1.58;;;19.80;99.90;;;;;;4835562;29;20604;-82
2021/06/26 19:10:12;;;;;;;3.58;1.38;;;19.60;99.90;;;;;;4841611;29;20046;-81
2021/06/26 19:12:39;;;;;;;4.35;1.40;;;19.50;99.90;;;;;;4841923;29;20106;-81
2021/06/26 19:15:06;;;;;;;7.07;1.50;;;19.30;99.90;;;;;;4841819;29;20114;-83
2021/06/26 19:17:33;;;;;;;3.03;1.33;;;19.30;99.90;;;;;;4841903;29;20053;-81
2021/06/26 19:20:01;;;;;;;4.47;1.50;;;19.40;99.90;;;;;;4841937;29;20050;-82
2021/06/26 19:22:28;;;;;;;2.63;1.10;;;19.30;99.90;;;;;;4844417;29;20463;-81
2021/06/26 19:24:55;;;;;;;2.85;1.42;;;19.30;99.90;;;;;;4842875;29;20130;-81
2021/06/26 19:27:22;;;;;;;4.47;1.63;;;19.10;99.90;;;;;;4842657;29;20065;-81
2021/06/26 19:29:49;;;;;;;4.38;1.40;;;18.90;99.90;;;;;;4840333;29;20079;-84
2021/06/26 19:32:15;;;;;;;4.97;1.70;;;18.70;99.90;;;;;;4840430;29;20102;-82
2021/06/26 19:34:43;;;;;;;4.80;1.77;;;18.50;99.90;;;;;;4840892;29;20065;-81
2021/06/26 19:37:12;;;;;;;2.90;1.33;;;18.30;99.90;;;;;;4843830;29;20089;-81
2021/06/26 19:39:39;;;;;;;6.43;1.80;;;18.10;99.90;;;;;;4839687;29;20054;-81
2021/06/26 19:42:07;;;;;;;3.08;1.63;;;17.80;99.90;;;;;;4841068;29;20137;-81
2021/06/26 19:44:35;;;;;;;3.33;1.42;;;17.60;99.90;;;;;;4843431;29;20062;-81
2021/06/26 19:47:02;;;;;;;6.30;1.87;;;17.50;99.90;;;;;;4856563;29;20578;-81
2021/06/26 19:49:29;;;;;;;4.53;1.83;;;17.30;99.90;;;;;;4841674;29;21606;-81
2021/06/26 19:51:56;;;;;;;5.60;1.55;;;17.20;99.90;;;;;;4841537;29;20054;-85
2021/06/26 19:54:23;;;;;;;3.83;1.55;;;17.00;99.90;;;;;;4841264;29;20052;-81
2021/06/26 19:56:50;;;;;;;4.38;1.67;;;16.90;99.90;;;;;;4854869;29;20061;-81
2021/06/26 19:59:17;;;;;;;3.17;1.40;;;16.80;99.90;;;;;;4840788;29;20054;-87
2021/06/26 20:01:44;;;;;;;3.92;1.40;;;16.60;99.90;;;;;;4843135;29;20054;-85
2021/06/26 20:04:12;;;;;;;5.53;1.70;;;16.50;99.90;;;;;;4837361;29;20118;-86
2021/06/26 20:06:38;;;;;;;2.47;1.58;;;16.40;99.90;;;;;;4842952;29;20054;-85
2021/06/26 20:09:06;;;;;;;3.28;1.60;;;16.40;99.90;;;;;;4844083;29;20102;-84
2021/06/26 20:11:32;;;;;;;3.55;1.80;;;16.30;99.90;;;;;;4860575;29;20094;-85
2021/06/26 20:13:59;;;;;;;5.05;1.40;;;16.20;99.90;;;;;;4844051;29;20102;-86
2021/06/26 20:16:26;;;;;;;4.60;1.80;;;16.10;99.90;;;;;;4842865;29;20098;-85
2021/06/26 20:18:53;;;;;;;3.67;1.60;;;16.10;99.90;;;;;;4843465;29;20054;-87
2021/06/26 20:21:20;;;;;;;6.55;1.70;;;16.00;99.90;;;;;;4840873;29;20121;-87
2021/06/26 20:23:47;;;;;;;8.27;2.17;;;15.90;99.90;;;;;;4835315;29;20468;-85
2021/06/26 20:26:14;;;;;;;4.25;1.90;;;15.80;99.90;;;;;;4834648;29;20107;-87
2021/06/26 20:28:41;;;;;;;4.13;1.85;;;15.70;99.90;;;;;;4842745;29;20050;-87